KCXU

Details ICAO KCXU
Name CAMILLA MITCHELL CO
Region United States
Timezone America/New_York (UTC-5.0)
Plans Departing 0
Arriving 0
Stats Elevation 175 ft / 53 m (AMSL)
Location 31.212915° -84.236805°
Runways 1
Magnetic Variation 4.892° W
Sunrise 2017-12-11 12:27:06 UTC / 2017-12-11 07:27:06 Local
Sunset 2017-12-11 22:36:26 UTC / 2017-12-11 17:36:26 Local
Advertisement - Login to hide

Runways

ID Width Length Bearing (true) Bearing (mag) Surface Threshold Offset Overrun Length
08 60 ft / 18 m 3,998 ft / 1,219 m 78.99° 83.88° Asphalt 0 ft / 0 m 0 ft / 0 m
26 60 ft / 18 m 3,998 ft / 1,219 m 259.00° 263.89° Asphalt 0 ft / 0 m 0 ft / 0 m

Map

Weather


0- 5 10 15 20 25 30 35+ Temperature / ° C

Clouds and Precipitation
Forecast for 2017-12-11 18:00 UTC. Updated 2 hours ago

Ground ~20,000 ft ~40,000 ft Winds

METAR

KCXU 111835Z AUTO 24004KT 10SM CLR 16/03 A3017 RMK AO1 T01640028

TAF

Not found

Frequencies

Unicom 122.80 MHz CTAF/UNICOM
Warning: Do not use this data for real-world aviation or navigation. No guarantee of current accuracy is given.